sensor_id;sensor_type;location;lat;lon;timestamp;P1;durP1;ratioP1;P2;durP2;ratioP2
18875;SDS011;9570;50.854;13.778;2023-07-13T00:00:12;3.67;;;2.10;;
18875;SDS011;9570;50.854;13.778;2023-07-13T00:02:40;3.73;;;2.20;;
18875;SDS011;9570;50.854;13.778;2023-07-13T00:05:06;5.83;;;2.20;;
18875;SDS011;9570;50.854;13.778;2023-07-13T00:07:32;4.50;;;2.50;;
18875;SDS011;9570;50.854;13.778;2023-07-13T00:09:58;4.57;;;2.23;;
18875;SDS011;9570;50.854;13.778;2023-07-13T00:12:32;4.00;;;1.80;;
18875;SDS011;9570;50.854;13.778;2023-07-13T00:14:59;2.50;;;2.10;;
18875;SDS011;9570;50.854;13.778;2023-07-13T00:17:27;5.83;;;2.20;;
18875;SDS011;9570;50.854;13.778;2023-07-13T00:19:54;4.97;;;2.30;;
18875;SDS011;9570;50.854;13.778;2023-07-13T00:22:21;4.67;;;2.30;;
18875;SDS011;9570;50.854;13.778;2023-07-13T00:24:46;4.60;;;2.10;;
18875;SDS011;9570;50.854;13.778;2023-07-13T00:27:12;5.13;;;2.50;;
18875;SDS011;9570;50.854;13.778;2023-07-13T00:29:39;4.70;;;2.40;;
18875;SDS011;9570;50.854;13.778;2023-07-13T00:32:05;9.07;;;2.70;;
18875;SDS011;9570;50.854;13.778;2023-07-13T00:34:32;10.10;;;2.90;;
18875;SDS011;9570;50.854;13.778;2023-07-13T00:36:57;3.63;;;2.70;;
18875;SDS011;9570;50.854;13.778;2023-07-13T00:39:23;6.70;;;2.80;;
18875;SDS011;9570;50.854;13.778;2023-07-13T00:41:49;3.87;;;2.60;;
18875;SDS011;9570;50.854;13.778;2023-07-13T00:44:16;7.47;;;3.03;;
18875;SDS011;9570;50.854;13.778;2023-07-13T00:46:42;4.50;;;3.00;;
18875;SDS011;9570;50.854;13.778;2023-07-13T00:49:09;5.03;;;2.57;;
18875;SDS011;9570;50.854;13.778;2023-07-13T00:51:41;3.40;;;2.90;;
18875;SDS011;9570;50.854;13.778;2023-07-13T00:54:09;5.40;;;2.80;;
18875;SDS011;9570;50.854;13.778;2023-07-13T00:56:38;6.20;;;2.70;;
18875;SDS011;9570;50.854;13.778;2023-07-13T00:59:06;3.23;;;2.93;;
18875;SDS011;9570;50.854;13.778;2023-07-13T01:01:35;4.20;;;3.00;;
18875;SDS011;9570;50.854;13.778;2023-07-13T01:04:01;3.30;;;2.67;;
18875;SDS011;9570;50.854;13.778;2023-07-13T01:06:27;6.23;;;3.20;;
18875;SDS011;9570;50.854;13.778;2023-07-13T01:08:53;7.03;;;2.90;;
18875;SDS011;9570;50.854;13.778;2023-07-13T01:11:21;4.67;;;2.90;;
18875;SDS011;9570;50.854;13.778;2023-07-13T01:13:47;3.40;;;2.93;;
18875;SDS011;9570;50.854;13.778;2023-07-13T01:16:17;3.97;;;3.03;;
18875;SDS011;9570;50.854;13.778;2023-07-13T01:18:48;5.17;;;3.30;;
18875;SDS011;9570;50.854;13.778;2023-07-13T01:21:14;4.37;;;3.07;;
18875;SDS011;9570;50.854;13.778;2023-07-13T01:23:39;5.57;;;3.00;;
18875;SDS011;9570;50.854;13.778;2023-07-13T01:26:05;3.07;;;2.77;;
18875;SDS011;9570;50.854;13.778;2023-07-13T01:28:30;5.57;;;2.80;;
18875;SDS011;9570;50.854;13.778;2023-07-13T01:30:57;3.90;;;2.90;;
18875;SDS011;9570;50.854;13.778;2023-07-13T01:33:24;5.47;;;2.90;;
18875;SDS011;9570;50.854;13.778;2023-07-13T01:35:50;2.77;;;2.47;;
18875;SDS011;9570;50.854;13.778;2023-07-13T01:38:16;4.93;;;2.70;;
18875;SDS011;9570;50.854;13.778;2023-07-13T01:40:45;3.17;;;2.70;;
18875;SDS011;9570;50.854;13.778;2023-07-13T01:43:11;4.70;;;2.93;;
18875;SDS011;9570;50.854;13.778;2023-07-13T01:45:37;4.63;;;2.80;;
18875;SDS011;9570;50.854;13.778;2023-07-13T01:48:03;3.70;;;2.67;;
18875;SDS011;9570;50.854;13.778;2023-07-13T01:50:31;3.10;;;2.53;;
18875;SDS011;9570;50.854;13.778;2023-07-13T01:52:57;6.20;;;3.37;;
18875;SDS011;9570;50.854;13.778;2023-07-13T01:55:22;3.33;;;2.73;;
18875;SDS011;9570;50.854;13.778;2023-07-13T01:57:48;5.00;;;3.17;;
18875;SDS011;9570;50.854;13.778;2023-07-13T02:00:14;3.73;;;2.87;;
18875;SDS011;9570;50.854;13.778;2023-07-13T02:02:40;4.37;;;2.80;;
18875;SDS011;9570;50.854;13.778;2023-07-13T02:05:06;3.17;;;2.87;;
18875;SDS011;9570;50.854;13.778;2023-07-13T02:07:32;4.70;;;3.23;;
18875;SDS011;9570;50.854;13.778;2023-07-13T02:09:57;4.23;;;2.70;;
18875;SDS011;9570;50.854;13.778;2023-07-13T02:12:23;6.10;;;2.90;;
18875;SDS011;9570;50.854;13.778;2023-07-13T02:14:48;5.00;;;2.80;;
18875;SDS011;9570;50.854;13.778;2023-07-13T02:17:14;3.27;;;2.90;;
18875;SDS011;9570;50.854;13.778;2023-07-13T02:19:40;2.93;;;2.73;;
18875;SDS011;9570;50.854;13.778;2023-07-13T02:22:05;4.47;;;2.70;;
18875;SDS011;9570;50.854;13.778;2023-07-13T02:24:31;5.57;;;3.27;;
18875;SDS011;9570;50.854;13.778;2023-07-13T02:26:56;3.47;;;2.77;;
18875;SDS011;9570;50.854;13.778;2023-07-13T02:29:22;3.20;;;2.90;;
18875;SDS011;9570;50.854;13.778;2023-07-13T02:31:47;3.27;;;2.97;;
18875;SDS011;9570;50.854;13.778;2023-07-13T02:34:13;5.87;;;2.53;;
18875;SDS011;9570;50.854;13.778;2023-07-13T02:36:38;6.87;;;3.00;;
18875;SDS011;9570;50.854;13.778;2023-07-13T02:39:05;5.20;;;2.73;;
18875;SDS011;9570;50.854;13.778;2023-07-13T02:41:31;5.87;;;2.87;;
18875;SDS011;9570;50.854;13.778;2023-07-13T02:44:00;3.50;;;3.13;;
18875;SDS011;9570;50.854;13.778;2023-07-13T02:46:31;3.40;;;2.53;;
18875;SDS011;9570;50.854;13.778;2023-07-13T02:48:58;2.80;;;2.60;;
18875;SDS011;9570;50.854;13.778;2023-07-13T02:51:23;5.27;;;3.07;;
18875;SDS011;9570;50.854;13.778;2023-07-13T02:53:49;2.83;;;2.63;;
18875;SDS011;9570;50.854;13.778;2023-07-13T02:56:15;3.77;;;2.70;;
18875;SDS011;9570;50.854;13.778;2023-07-13T02:58:40;3.13;;;2.70;;
18875;SDS011;9570;50.854;13.778;2023-07-13T03:01:06;3.53;;;2.80;;
18875;SDS011;9570;50.854;13.778;2023-07-13T03:03:34;3.23;;;3.00;;
18875;SDS011;9570;50.854;13.778;2023-07-13T03:06:00;4.40;;;2.67;;
18875;SDS011;9570;50.854;13.778;2023-07-13T03:08:28;7.83;;;2.83;;
18875;SDS011;9570;50.854;13.778;2023-07-13T03:11:03;5.50;;;3.10;;
18875;SDS011;9570;50.854;13.778;2023-07-13T03:13:31;3.60;;;3.00;;
18875;SDS011;9570;50.854;13.778;2023-07-13T03:15:57;3.30;;;3.00;;
18875;SDS011;9570;50.854;13.778;2023-07-13T03:18:22;5.80;;;3.20;;
18875;SDS011;9570;50.854;13.778;2023-07-13T03:20:51;4.60;;;3.13;;
18875;SDS011;9570;50.854;13.778;2023-07-13T03:23:17;3.70;;;3.07;;
18875;SDS011;9570;50.854;13.778;2023-07-13T03:25:44;5.37;;;3.47;;
18875;SDS011;9570;50.854;13.778;2023-07-13T03:28:10;2.80;;;2.60;;
18875;SDS011;9570;50.854;13.778;2023-07-13T03:30:36;3.30;;;3.00;;
18875;SDS011;9570;50.854;13.778;2023-07-13T03:33:01;4.00;;;2.90;;
18875;SDS011;9570;50.854;13.778;2023-07-13T03:35:27;4.07;;;2.90;;
18875;SDS011;9570;50.854;13.778;2023-07-13T03:37:52;3.60;;;2.90;;
18875;SDS011;9570;50.854;13.778;2023-07-13T03:40:18;4.27;;;3.17;;
18875;SDS011;9570;50.854;13.778;2023-07-13T03:42:44;5.80;;;3.10;;
18875;SDS011;9570;50.854;13.778;2023-07-13T03:45:09;4.40;;;2.87;;
18875;SDS011;9570;50.854;13.778;2023-07-13T03:47:35;3.43;;;3.07;;
18875;SDS011;9570;50.854;13.778;2023-07-13T03:50:00;4.57;;;2.90;;
18875;SDS011;9570;50.854;13.778;2023-07-13T03:52:26;4.73;;;2.90;;
18875;SDS011;9570;50.854;13.778;2023-07-13T03:54:51;4.40;;;3.00;;
18875;SDS011;9570;50.854;13.778;2023-07-13T03:57:18;5.97;;;3.00;;
18875;SDS011;9570;50.854;13.778;2023-07-13T03:59:43;5.87;;;2.90;;
18875;SDS011;9570;50.854;13.778;2023-07-13T04:02:09;4.00;;;3.20;;
18875;SDS011;9570;50.854;13.778;2023-07-13T04:04:35;4.10;;;2.73;;
18875;SDS011;9570;50.854;13.778;2023-07-13T04:07:00;3.20;;;2.90;;
18875;SDS011;9570;50.854;13.778;2023-07-13T04:09:26;6.30;;;3.10;;
18875;SDS011;9570;50.854;13.778;2023-07-13T04:11:51;5.97;;;3.23;;
18875;SDS011;9570;50.854;13.778;2023-07-13T04:14:17;3.60;;;2.70;;
18875;SDS011;9570;50.854;13.778;2023-07-13T04:16:42;5.40;;;3.20;;
18875;SDS011;9570;50.854;13.778;2023-07-13T04:19:08;3.20;;;2.90;;
18875;SDS011;9570;50.854;13.778;2023-07-13T04:21:35;3.10;;;2.80;;
18875;SDS011;9570;50.854;13.778;2023-07-13T04:24:01;3.50;;;3.20;;
18875;SDS011;9570;50.854;13.778;2023-07-13T04:26:27;3.60;;;2.90;;
18875;SDS011;9570;50.854;13.778;2023-07-13T04:28:53;3.10;;;2.83;;
18875;SDS011;9570;50.854;13.778;2023-07-13T04:31:19;3.10;;;2.80;;
18875;SDS011;9570;50.854;13.778;2023-07-13T04:33:44;3.30;;;2.97;;
18875;SDS011;9570;50.854;13.778;2023-07-13T04:36:10;3.43;;;3.07;;
18875;SDS011;9570;50.854;13.778;2023-07-13T04:38:36;4.27;;;3.20;;
18875;SDS011;9570;50.854;13.778;2023-07-13T04:41:03;3.40;;;3.10;;
18875;SDS011;9570;50.854;13.778;2023-07-13T04:43:30;3.97;;;3.30;;
18875;SDS011;9570;50.854;13.778;2023-07-13T04:45:57;4.20;;;3.47;;
18875;SDS011;9570;50.854;13.778;2023-07-13T04:48:28;4.90;;;3.10;;
18875;SDS011;9570;50.854;13.778;2023-07-13T04:50:55;3.47;;;2.97;;
18875;SDS011;9570;50.854;13.778;2023-07-13T04:53:22;4.30;;;2.67;;
18875;SDS011;9570;50.854;13.778;2023-07-13T04:55:48;3.67;;;3.13;;
18875;SDS011;9570;50.854;13.778;2023-07-13T04:58:13;4.00;;;3.30;;
18875;SDS011;9570;50.854;13.778;2023-07-13T05:00:39;3.23;;;2.93;;
18875;SDS011;9570;50.854;13.778;2023-07-13T05:03:04;3.90;;;3.20;;
18875;SDS011;9570;50.854;13.778;2023-07-13T05:05:30;4.10;;;3.40;;
18875;SDS011;9570;50.854;13.778;2023-07-13T05:07:56;5.33;;;3.00;;
18875;SDS011;9570;50.854;13.778;2023-07-13T05:10:21;4.47;;;3.37;;
18875;SDS011;9570;50.854;13.778;2023-07-13T05:12:47;4.40;;;3.07;;
18875;SDS011;9570;50.854;13.778;2023-07-13T05:15:13;7.63;;;3.23;;
18875;SDS011;9570;50.854;13.778;2023-07-13T05:17:39;5.20;;;3.20;;
18875;SDS011;9570;50.854;13.778;2023-07-13T05:20:05;6.77;;;3.10;;
18875;SDS011;9570;50.854;13.778;2023-07-13T05:22:31;4.43;;;2.90;;
18875;SDS011;9570;50.854;13.778;2023-07-13T05:24:57;8.03;;;2.83;;
18875;SDS011;9570;50.854;13.778;2023-07-13T05:27:22;5.33;;;3.30;;
18875;SDS011;9570;50.854;13.778;2023-07-13T05:29:48;4.93;;;3.30;;
18875;SDS011;9570;50.854;13.778;2023-07-13T05:32:14;4.70;;;2.90;;
18875;SDS011;9570;50.854;13.778;2023-07-13T05:34:39;3.33;;;3.03;;
18875;SDS011;9570;50.854;13.778;2023-07-13T05:37:05;6.23;;;2.80;;
18875;SDS011;9570;50.854;13.778;2023-07-13T05:39:30;5.83;;;3.03;;
18875;SDS011;9570;50.854;13.778;2023-07-13T05:41:56;3.33;;;3.00;;
18875;SDS011;9570;50.854;13.778;2023-07-13T05:44:21;2.97;;;2.70;;
18875;SDS011;9570;50.854;13.778;2023-07-13T05:46:47;6.53;;;2.83;;
18875;SDS011;9570;50.854;13.778;2023-07-13T05:49:12;3.37;;;3.07;;
18875;SDS011;9570;50.854;13.778;2023-07-13T05:51:38;3.20;;;2.77;;
18875;SDS011;9570;50.854;13.778;2023-07-13T05:54:03;4.40;;;3.23;;
18875;SDS011;9570;50.854;13.778;2023-07-13T05:56:29;3.67;;;3.07;;
18875;SDS011;9570;50.854;13.778;2023-07-13T05:58:55;6.10;;;2.77;;
18875;SDS011;9570;50.854;13.778;2023-07-13T06:01:21;3.87;;;2.97;;
18875;SDS011;9570;50.854;13.778;2023-07-13T06:03:48;3.50;;;3.20;;
18875;SDS011;9570;50.854;13.778;2023-07-13T06:06:14;3.87;;;3.07;;
18875;SDS011;9570;50.854;13.778;2023-07-13T06:08:40;4.43;;;3.17;;
18875;SDS011;9570;50.854;13.778;2023-07-13T06:11:09;3.47;;;3.10;;
18875;SDS011;9570;50.854;13.778;2023-07-13T06:13:38;4.97;;;2.90;;
18875;SDS011;9570;50.854;13.778;2023-07-13T06:16:04;3.40;;;3.10;;
18875;SDS011;9570;50.854;13.778;2023-07-13T06:18:31;4.87;;;2.80;;
18875;SDS011;9570;50.854;13.778;2023-07-13T06:20:57;3.33;;;2.43;;
18875;SDS011;9570;50.854;13.778;2023-07-13T06:23:23;5.40;;;2.90;;
18875;SDS011;9570;50.854;13.778;2023-07-13T06:25:49;4.40;;;2.57;;
18875;SDS011;9570;50.854;13.778;2023-07-13T06:28:14;2.90;;;2.60;;
18875;SDS011;9570;50.854;13.778;2023-07-13T06:30:40;2.57;;;2.37;;
18875;SDS011;9570;50.854;13.778;2023-07-13T06:33:05;3.43;;;2.43;;
18875;SDS011;9570;50.854;13.778;2023-07-13T06:35:31;2.83;;;2.60;;
18875;SDS011;9570;50.854;13.778;2023-07-13T06:37:56;2.87;;;2.40;;
18875;SDS011;9570;50.854;13.778;2023-07-13T06:40:22;2.50;;;2.30;;
18875;SDS011;9570;50.854;13.778;2023-07-13T06:42:47;2.77;;;2.20;;
18875;SDS011;9570;50.854;13.778;2023-07-13T06:45:13;2.23;;;2.03;;
18875;SDS011;9570;50.854;13.778;2023-07-13T06:47:39;2.63;;;2.07;;
18875;SDS011;9570;50.854;13.778;2023-07-13T06:50:04;2.43;;;2.10;;
18875;SDS011;9570;50.854;13.778;2023-07-13T06:52:30;3.57;;;2.13;;
18875;SDS011;9570;50.854;13.778;2023-07-13T06:54:55;2.93;;;2.10;;
18875;SDS011;9570;50.854;13.778;2023-07-13T06:57:21;2.87;;;2.30;;
18875;SDS011;9570;50.854;13.778;2023-07-13T06:59:46;4.33;;;2.23;;
18875;SDS011;9570;50.854;13.778;2023-07-13T07:02:12;2.70;;;2.10;;
18875;SDS011;9570;50.854;13.778;2023-07-13T07:04:37;6.87;;;2.00;;
18875;SDS011;9570;50.854;13.778;2023-07-13T07:07:03;4.40;;;2.10;;
18875;SDS011;9570;50.854;13.778;2023-07-13T07:09:29;3.17;;;2.10;;
18875;SDS011;9570;50.854;13.778;2023-07-13T07:11:56;5.33;;;2.00;;
18875;SDS011;9570;50.854;13.778;2023-07-13T07:14:22;4.37;;;2.00;;
18875;SDS011;9570;50.854;13.778;2023-07-13T07:16:48;2.97;;;1.80;;
18875;SDS011;9570;50.854;13.778;2023-07-13T07:19:14;5.73;;;2.10;;
18875;SDS011;9570;50.854;13.778;2023-07-13T07:21:40;4.30;;;2.13;;
18875;SDS011;9570;50.854;13.778;2023-07-13T07:24:05;4.87;;;1.80;;
18875;SDS011;9570;50.854;13.778;2023-07-13T07:26:32;3.03;;;1.60;;
18875;SDS011;9570;50.854;13.778;2023-07-13T07:28:58;2.37;;;1.70;;
18875;SDS011;9570;50.854;13.778;2023-07-13T07:31:23;4.50;;;1.63;;
18875;SDS011;9570;50.854;13.778;2023-07-13T07:33:48;1.90;;;1.60;;
18875;SDS011;9570;50.854;13.778;2023-07-13T07:36:17;5.07;;;1.67;;
18875;SDS011;9570;50.854;13.778;2023-07-13T07:38:42;2.40;;;1.43;;
18875;SDS011;9570;50.854;13.778;2023-07-13T07:41:08;2.75;;;1.67;;
18875;SDS011;9570;50.854;13.778;2023-07-13T07:43:34;3.60;;;1.40;;
18875;SDS011;9570;50.854;13.778;2023-07-13T07:46:00;3.15;;;1.50;;
18875;SDS011;9570;50.854;13.778;2023-07-13T07:48:27;4.80;;;1.80;;
18875;SDS011;9570;50.854;13.778;2023-07-13T07:50:52;4.93;;;1.52;;
18875;SDS011;9570;50.854;13.778;2023-07-13T07:53:18;3.63;;;1.50;;
18875;SDS011;9570;50.854;13.778;2023-07-13T07:55:43;2.35;;;1.30;;
18875;SDS011;9570;50.854;13.778;2023-07-13T07:58:10;4.20;;;1.67;;
18875;SDS011;9570;50.854;13.778;2023-07-13T08:00:35;3.78;;;1.35;;
18875;SDS011;9570;50.854;13.778;2023-07-13T08:03:01;4.38;;;1.55;;
18875;SDS011;9570;50.854;13.778;2023-07-13T08:05:27;3.42;;;1.70;;
18875;SDS011;9570;50.854;13.778;2023-07-13T08:07:52;3.30;;;1.50;;
18875;SDS011;9570;50.854;13.778;2023-07-13T08:10:18;4.53;;;1.60;;
18875;SDS011;9570;50.854;13.778;2023-07-13T08:12:44;4.85;;;1.70;;
18875;SDS011;9570;50.854;13.778;2023-07-13T08:15:11;3.83;;;1.60;;
18875;SDS011;9570;50.854;13.778;2023-07-13T08:17:38;5.72;;;1.80;;
18875;SDS011;9570;50.854;13.778;2023-07-13T08:20:04;3.55;;;1.77;;
18875;SDS011;9570;50.854;13.778;2023-07-13T08:22:30;4.47;;;1.75;;
18875;SDS011;9570;50.854;13.778;2023-07-13T08:24:56;2.08;;;1.70;;
18875;SDS011;9570;50.854;13.778;2023-07-13T08:27:22;3.17;;;1.52;;
18875;SDS011;9570;50.854;13.778;2023-07-13T08:29:48;3.92;;;1.60;;
18875;SDS011;9570;50.854;13.778;2023-07-13T08:32:14;3.13;;;1.55;;
18875;SDS011;9570;50.854;13.778;2023-07-13T08:34:39;3.25;;;1.40;;
18875;SDS011;9570;50.854;13.778;2023-07-13T08:37:05;3.30;;;1.55;;
18875;SDS011;9570;50.854;13.778;2023-07-13T08:39:32;4.85;;;1.90;;
18875;SDS011;9570;50.854;13.778;2023-07-13T08:41:59;4.28;;;1.85;;
18875;SDS011;9570;50.854;13.778;2023-07-13T08:44:37;3.30;;;1.60;;
18875;SDS011;9570;50.854;13.778;2023-07-13T08:47:14;5.03;;;1.70;;
18875;SDS011;9570;50.854;13.778;2023-07-13T08:49:41;3.30;;;1.40;;
18875;SDS011;9570;50.854;13.778;2023-07-13T08:52:11;3.97;;;1.67;;
18875;SDS011;9570;50.854;13.778;2023-07-13T08:54:48;5.85;;;1.60;;
18875;SDS011;9570;50.854;13.778;2023-07-13T08:57:17;2.63;;;1.55;;
18875;SDS011;9570;50.854;13.778;2023-07-13T08:59:45;2.53;;;1.35;;
18875;SDS011;9570;50.854;13.778;2023-07-13T09:04:50;1.98;;;1.50;;
18875;SDS011;9570;50.854;13.778;2023-07-13T09:10:05;4.03;;;1.95;;
18875;SDS011;9570;50.854;13.778;2023-07-13T09:15:28;2.75;;;1.63;;
18875;SDS011;9570;50.854;13.778;2023-07-13T09:17:59;3.08;;;1.67;;
18875;SDS011;9570;50.854;13.778;2023-07-13T09:20:46;3.25;;;1.48;;
18875;SDS011;9570;50.854;13.778;2023-07-13T09:23:16;3.55;;;1.60;;
18875;SDS011;9570;50.854;13.778;2023-07-13T09:25:44;3.25;;;1.40;;
18875;SDS011;9570;50.854;13.778;2023-07-13T09:28:17;6.75;;;1.67;;
18875;SDS011;9570;50.854;13.778;2023-07-13T09:33:19;3.05;;;1.40;;
18875;SDS011;9570;50.854;13.778;2023-07-13T09:35:45;3.88;;;1.88;;
18875;SDS011;9570;50.854;13.778;2023-07-13T09:38:15;3.08;;;1.48;;
18875;SDS011;9570;50.854;13.778;2023-07-13T09:46:38;5.67;;;1.90;;
18875;SDS011;9570;50.854;13.778;2023-07-13T09:49:09;2.67;;;1.60;;
18875;SDS011;9570;50.854;13.778;2023-07-13T09:51:36;2.83;;;1.48;;
18875;SDS011;9570;50.854;13.778;2023-07-13T09:54:23;3.83;;;1.20;;
18875;SDS011;9570;50.854;13.778;2023-07-13T09:56:56;3.60;;;1.50;;
18875;SDS011;9570;50.854;13.778;2023-07-13T09:59:24;6.30;;;1.40;;
18875;SDS011;9570;50.854;13.778;2023-07-13T10:01:53;3.43;;;1.47;;
18875;SDS011;9570;50.854;13.778;2023-07-13T10:04:19;3.07;;;1.50;;
18875;SDS011;9570;50.854;13.778;2023-07-13T10:06:52;3.03;;;1.33;;
18875;SDS011;9570;50.854;13.778;2023-07-13T10:09:31;4.10;;;1.23;;
18875;SDS011;9570;50.854;13.778;2023-07-13T10:11:57;3.33;;;1.48;;
18875;SDS011;9570;50.854;13.778;2023-07-13T10:14:22;3.22;;;1.30;;
18875;SDS011;9570;50.854;13.778;2023-07-13T10:16:51;4.10;;;1.60;;
18875;SDS011;9570;50.854;13.778;2023-07-13T10:19:23;4.50;;;1.50;;
18875;SDS011;9570;50.854;13.778;2023-07-13T10:21:56;3.40;;;1.10;;
18875;SDS011;9570;50.854;13.778;2023-07-13T10:24:26;4.95;;;1.38;;
18875;SDS011;9570;50.854;13.778;2023-07-13T10:27:15;2.83;;;1.20;;
18875;SDS011;9570;50.854;13.778;2023-07-13T10:29:44;5.35;;;1.35;;
18875;SDS011;9570;50.854;13.778;2023-07-13T10:32:13;3.08;;;1.40;;
18875;SDS011;9570;50.854;13.778;2023-07-13T10:34:43;2.10;;;1.40;;
18875;SDS011;9570;50.854;13.778;2023-07-13T10:37:16;4.57;;;1.50;;
18875;SDS011;9570;50.854;13.778;2023-07-13T10:39:50;4.07;;;1.55;;
18875;SDS011;9570;50.854;13.778;2023-07-13T10:42:34;3.45;;;1.60;;
18875;SDS011;9570;50.854;13.778;2023-07-13T10:45:11;3.77;;;1.70;;
18875;SDS011;9570;50.854;13.778;2023-07-13T10:47:42;4.40;;;1.70;;
18875;SDS011;9570;50.854;13.778;2023-07-13T10:50:13;2.43;;;1.30;;
18875;SDS011;9570;50.854;13.778;2023-07-13T10:52:52;3.30;;;1.57;;
18875;SDS011;9570;50.854;13.778;2023-07-13T10:55:33;4.57;;;1.60;;
18875;SDS011;9570;50.854;13.778;2023-07-13T11:00:43;4.20;;;1.60;;
18875;SDS011;9570;50.854;13.778;2023-07-13T11:03:33;2.37;;;1.50;;
18875;SDS011;9570;50.854;13.778;2023-07-13T11:06:15;3.10;;;1.53;;
18875;SDS011;9570;50.854;13.778;2023-07-13T11:08:55;5.17;;;1.40;;
18875;SDS011;9570;50.854;13.778;2023-07-13T11:14:00;3.50;;;1.60;;
18875;SDS011;9570;50.854;13.778;2023-07-13T11:16:43;4.97;;;1.50;;
18875;SDS011;9570;50.854;13.778;2023-07-13T11:35:44;3.40;;;1.40;;
18875;SDS011;9570;50.854;13.778;2023-07-13T11:38:55;2.97;;;1.30;;
18875;SDS011;9570;50.854;13.778;2023-07-13T11:44:07;4.77;;;1.67;;
18875;SDS011;9570;50.854;13.778;2023-07-13T11:46:33;4.07;;;1.40;;
18875;SDS011;9570;50.854;13.778;2023-07-13T11:48:58;2.30;;;1.47;;
18875;SDS011;9570;50.854;13.778;2023-07-13T11:51:31;2.53;;;1.30;;
18875;SDS011;9570;50.854;13.778;2023-07-13T11:54:00;6.63;;;1.60;;
18875;SDS011;9570;50.854;13.778;2023-07-13T11:56:29;3.70;;;1.50;;
18875;SDS011;9570;50.854;13.778;2023-07-13T11:58:57;3.60;;;1.50;;
18875;SDS011;9570;50.854;13.778;2023-07-13T12:01:29;3.87;;;1.50;;
18875;SDS011;9570;50.854;13.778;2023-07-13T12:03:57;4.40;;;1.80;;
18875;SDS011;9570;50.854;13.778;2023-07-13T12:08:59;2.27;;;1.40;;
18875;SDS011;9570;50.854;13.778;2023-07-13T12:11:28;4.07;;;1.57;;
18875;SDS011;9570;50.854;13.778;2023-07-13T12:13:54;2.20;;;1.50;;
18875;SDS011;9570;50.854;13.778;2023-07-13T12:18:52;3.43;;;1.50;;
18875;SDS011;9570;50.854;13.778;2023-07-13T12:21:19;2.67;;;1.63;;
18875;SDS011;9570;50.854;13.778;2023-07-13T12:23:47;3.67;;;1.40;;
18875;SDS011;9570;50.854;13.778;2023-07-13T12:26:14;3.33;;;1.63;;
18875;SDS011;9570;50.854;13.778;2023-07-13T12:28:51;1.73;;;1.50;;
18875;SDS011;9570;50.854;13.778;2023-07-13T12:31:26;3.93;;;1.40;;
18875;SDS011;9570;50.854;13.778;2023-07-13T12:34:07;2.50;;;1.50;;
18875;SDS011;9570;50.854;13.778;2023-07-13T12:36:37;2.17;;;1.60;;
18875;SDS011;9570;50.854;13.778;2023-07-13T12:39:15;4.00;;;1.60;;
18875;SDS011;9570;50.854;13.778;2023-07-13T12:41:45;2.70;;;1.60;;
18875;SDS011;9570;50.854;13.778;2023-07-13T12:44:13;4.07;;;1.50;;
18875;SDS011;9570;50.854;13.778;2023-07-13T12:46:50;4.13;;;1.60;;
18875;SDS011;9570;50.854;13.778;2023-07-13T12:49:29;5.57;;;1.60;;
18875;SDS011;9570;50.854;13.778;2023-07-13T12:52:00;5.73;;;1.40;;
18875;SDS011;9570;50.854;13.778;2023-07-13T12:54:27;3.77;;;1.37;;
18875;SDS011;9570;50.854;13.778;2023-07-13T12:56:54;4.17;;;1.60;;
18875;SDS011;9570;50.854;13.778;2023-07-13T12:59:23;3.37;;;1.37;;
18875;SDS011;9570;50.854;13.778;2023-07-13T13:01:51;3.03;;;1.73;;
18875;SDS011;9570;50.854;13.778;2023-07-13T13:04:18;5.57;;;1.60;;
18875;SDS011;9570;50.854;13.778;2023-07-13T13:06:46;3.20;;;1.70;;
18875;SDS011;9570;50.854;13.778;2023-07-13T13:09:13;5.17;;;1.50;;
18875;SDS011;9570;50.854;13.778;2023-07-13T13:11:40;3.03;;;1.50;;
18875;SDS011;9570;50.854;13.778;2023-07-13T13:14:06;3.47;;;1.50;;
18875;SDS011;9570;50.854;13.778;2023-07-13T13:16:43;4.23;;;1.40;;
18875;SDS011;9570;50.854;13.778;2023-07-13T13:19:15;3.77;;;1.90;;
18875;SDS011;9570;50.854;13.778;2023-07-13T13:21:53;5.07;;;1.57;;
18875;SDS011;9570;50.854;13.778;2023-07-13T13:24:21;4.80;;;1.70;;
18875;SDS011;9570;50.854;13.778;2023-07-13T13:26:49;2.53;;;1.60;;
18875;SDS011;9570;50.854;13.778;2023-07-13T13:29:20;3.10;;;1.67;;
18875;SDS011;9570;50.854;13.778;2023-07-13T13:31:49;2.73;;;1.50;;
18875;SDS011;9570;50.854;13.778;2023-07-13T13:34:16;3.00;;;1.33;;
18875;SDS011;9570;50.854;13.778;2023-07-13T13:36:43;3.03;;;1.40;;
18875;SDS011;9570;50.854;13.778;2023-07-13T13:39:20;4.30;;;1.67;;
18875;SDS011;9570;50.854;13.778;2023-07-13T13:41:49;3.10;;;1.47;;
18875;SDS011;9570;50.854;13.778;2023-07-13T13:44:16;4.23;;;1.57;;
18875;SDS011;9570;50.854;13.778;2023-07-13T13:46:42;2.53;;;1.43;;
18875;SDS011;9570;50.854;13.778;2023-07-13T13:49:13;4.77;;;1.47;;
18875;SDS011;9570;50.854;13.778;2023-07-13T13:51:43;5.67;;;1.83;;
18875;SDS011;9570;50.854;13.778;2023-07-13T13:54:10;3.10;;;1.47;;
18875;SDS011;9570;50.854;13.778;2023-07-13T13:56:37;5.40;;;1.37;;
18875;SDS011;9570;50.854;13.778;2023-07-13T13:59:03;3.30;;;1.50;;
18875;SDS011;9570;50.854;13.778;2023-07-13T14:01:29;4.70;;;1.70;;
18875;SDS011;9570;50.854;13.778;2023-07-13T14:03:56;2.27;;;1.60;;
18875;SDS011;9570;50.854;13.778;2023-07-13T14:06:22;3.93;;;1.50;;
18875;SDS011;9570;50.854;13.778;2023-07-13T14:08:48;1.73;;;1.50;;
18875;SDS011;9570;50.854;13.778;2023-07-13T14:11:14;4.07;;;1.70;;
18875;SDS011;9570;50.854;13.778;2023-07-13T14:13:43;3.47;;;1.63;;
18875;SDS011;9570;50.854;13.778;2023-07-13T14:16:16;4.23;;;1.60;;
18875;SDS011;9570;50.854;13.778;2023-07-13T14:18:44;4.37;;;1.60;;
18875;SDS011;9570;50.854;13.778;2023-07-13T14:21:11;2.50;;;1.50;;
18875;SDS011;9570;50.854;13.778;2023-07-13T14:23:43;3.00;;;1.53;;
18875;SDS011;9570;50.854;13.778;2023-07-13T14:26:14;3.17;;;1.63;;
18875;SDS011;9570;50.854;13.778;2023-07-13T14:28:42;3.70;;;1.47;;
18875;SDS011;9570;50.854;13.778;2023-07-13T14:31:09;4.50;;;1.47;;
18875;SDS011;9570;50.854;13.778;2023-07-13T14:33:37;5.10;;;1.83;;
18875;SDS011;9570;50.854;13.778;2023-07-13T14:36:03;2.80;;;1.50;;
18875;SDS011;9570;50.854;13.778;2023-07-13T14:38:38;4.63;;;1.57;;
18875;SDS011;9570;50.854;13.778;2023-07-13T14:41:04;7.47;;;1.80;;
18875;SDS011;9570;50.854;13.778;2023-07-13T14:43:29;3.70;;;1.80;;
18875;SDS011;9570;50.854;13.778;2023-07-13T14:45:55;4.03;;;1.70;;
18875;SDS011;9570;50.854;13.778;2023-07-13T14:48:23;2.97;;;1.67;;
18875;SDS011;9570;50.854;13.778;2023-07-13T14:50:57;4.73;;;1.57;;
18875;SDS011;9570;50.854;13.778;2023-07-13T14:53:26;4.13;;;1.70;;
18875;SDS011;9570;50.854;13.778;2023-07-13T14:55:55;3.77;;;1.33;;
18875;SDS011;9570;50.854;13.778;2023-07-13T14:58:20;2.97;;;1.60;;
18875;SDS011;9570;50.854;13.778;2023-07-13T15:00:46;3.93;;;1.47;;
18875;SDS011;9570;50.854;13.778;2023-07-13T15:03:17;4.30;;;1.70;;
18875;SDS011;9570;50.854;13.778;2023-07-13T15:05:49;5.50;;;1.40;;
18875;SDS011;9570;50.854;13.778;2023-07-13T15:08:15;6.67;;;1.63;;
18875;SDS011;9570;50.854;13.778;2023-07-13T15:10:41;2.17;;;1.50;;
18875;SDS011;9570;50.854;13.778;2023-07-13T15:13:17;4.57;;;1.60;;
18875;SDS011;9570;50.854;13.778;2023-07-13T15:15:50;3.77;;;1.90;;
18875;SDS011;9570;50.854;13.778;2023-07-13T15:18:18;4.40;;;1.70;;
18875;SDS011;9570;50.854;13.778;2023-07-13T15:20:45;5.10;;;1.67;;
18875;SDS011;9570;50.854;13.778;2023-07-13T15:23:13;3.77;;;1.63;;
18875;SDS011;9570;50.854;13.778;2023-07-13T15:25:40;2.47;;;1.50;;
18875;SDS011;9570;50.854;13.778;2023-07-13T15:28:06;3.37;;;1.63;;
18875;SDS011;9570;50.854;13.778;2023-07-13T15:30:38;3.40;;;1.50;;
18875;SDS011;9570;50.854;13.778;2023-07-13T15:33:20;2.50;;;1.50;;
18875;SDS011;9570;50.854;13.778;2023-07-13T15:35:52;2.97;;;1.63;;
18875;SDS011;9570;50.854;13.778;2023-07-13T15:38:23;4.90;;;1.60;;